Terminal Aerodrome Forecast
Issued by NWS Mobile, AL

Home | Current Version | Previous Version | Text Only | Print | Product List | Glossary On
Versions: 1 2 3 4 5 6 7 8 9 10 11 12 13 14
000
FTUS44 KMOB 240531
TAFMOB
TAF
KMOB 240531Z 2406/2506 00000KT P6SM SCT250
     FM241500 08008KT P6SM FEW040 SCT250
     FM242000 11008KT P6SM VCTS SCT045CB SCT150 BKN250
      TEMPO 2420/2424 5SM -TSRA BKN040CB=

USA.gov is the U.S. government's official web portal to all federal, state and local government web resources and services.